Time;durP1;ratioP1;P1;durP2;ratioP2;P2;SDS_P1;SDS_P2;PMS_P1;PMS_P2;Temp;Humidity;BMP_temperature;BMP_pressure;BME280_temperature;BME280_humidity;BME280_pressure;Samples;Min_cycle;Max_cycle;Signal;HPM_P1;HPM_P2
2022/08/15 00:01:27;;;;;;;2.60;2.40;;;24.20;59.20;;;;;;5078231;28;20191;-71
2022/08/15 00:03:59;;;;;;;2.75;2.55;;;24.20;59.20;;;;;;5112031;28;20278;-71
2022/08/15 00:06:41;;;;;;;2.58;2.38;;;24.30;59.30;;;;;;5095011;28;20180;-71
2022/08/15 00:09:13;;;;;;;2.40;2.20;;;24.30;59.90;;;;;;5110789;28;20698;-71
2022/08/15 00:11:44;;;;;;;3.00;2.80;;;24.20;59.30;;;;;;5113317;28;20212;-71
2022/08/15 00:14:17;;;;;;;2.63;2.40;;;24.20;59.30;;;;;;5113137;28;20255;-70
2022/08/15 00:16:47;;;;;;;2.70;2.50;;;24.20;59.40;;;;;;5111631;28;20182;-70
2022/08/15 00:19:22;;;;;;;2.80;2.60;;;24.20;59.30;;;;;;5093940;28;20216;-71
2022/08/15 00:21:54;;;;;;;2.75;2.55;;;24.20;59.40;;;;;;5094941;28;20180;-71
2022/08/15 00:24:25;;;;;;;2.53;2.38;;;24.20;59.40;;;;;;5094332;28;20195;-71
2022/08/15 00:26:54;;;;;;;2.50;2.30;;;24.20;59.40;;;;;;5111463;28;20244;-71
2022/08/15 00:29:23;;;;;;;2.55;2.38;;;24.30;59.50;;;;;;5111114;28;20246;-71
2022/08/15 00:31:53;;;;;;;2.63;2.47;;;24.20;59.40;;;;;;5111335;28;20286;-70
2022/08/15 00:34:21;;;;;;;2.80;2.60;;;24.30;59.50;;;;;;5112754;28;20183;-71
2022/08/15 00:36:49;;;;;;;2.92;2.72;;;24.20;59.40;;;;;;5094563;28;20262;-71
2022/08/15 00:39:18;;;;;;;2.85;2.70;;;24.20;59.40;;;;;;5093810;28;20281;-71
2022/08/15 00:41:48;;;;;;;2.50;2.40;;;24.30;59.50;;;;;;5077487;28;20184;-70
2022/08/15 00:44:30;;;;;;;2.75;2.55;;;24.30;59.50;;;;;;5112341;28;20172;-71
2022/08/15 00:47:07;;;;;;;2.80;2.60;;;24.20;59.40;;;;;;5094436;28;20203;-71
2022/08/15 00:49:35;;;;;;;2.90;2.70;;;24.20;59.40;;;;;;5077058;28;20219;-71
2022/08/15 00:52:20;;;;;;;2.53;2.40;;;24.20;59.40;;;;;;5077356;28;20180;-71
2022/08/15 00:54:54;;;;;;;2.78;2.58;;;24.20;59.40;;;;;;5111168;28;20698;-71
2022/08/15 00:57:34;;;;;;;2.80;2.60;;;24.20;59.40;;;;;;5110986;28;20218;-71
2022/08/15 01:00:18;;;;;;;2.90;2.70;;;24.20;59.40;;;;;;5110486;28;20211;-71
2022/08/15 01:02:46;;;;;;;2.88;2.60;;;24.30;59.50;;;;;;5090372;28;20181;-71
2022/08/15 01:05:14;;;;;;;2.45;2.25;;;24.20;59.40;;;;;;5073834;28;20177;-71
2022/08/15 01:07:41;;;;;;;2.45;2.35;;;24.30;59.50;;;;;;5073668;28;20292;-71
2022/08/15 01:10:09;;;;;;;2.65;2.50;;;24.20;59.40;;;;;;5073393;28;20640;-71
2022/08/15 01:12:37;;;;;;;2.60;2.40;;;24.20;59.40;;;;;;5091886;28;20565;-71
2022/08/15 01:15:12;;;;;;;2.80;2.60;;;24.20;59.40;;;;;;5057052;28;20279;-71
2022/08/15 01:17:39;;;;;;;2.75;2.55;;;24.20;59.40;;;;;;5073679;28;20211;-71
2022/08/15 01:20:12;;;;;;;2.67;2.47;;;24.20;59.40;;;;;;5073163;28;20208;-71
2022/08/15 01:23:14;;;;;;;2.60;2.40;;;24.20;59.40;;;;;;5073901;28;20183;-71
2022/08/15 01:25:48;;;;;;;2.70;2.50;;;24.20;59.40;;;;;;5073602;28;20180;-71
2022/08/15 01:28:26;;;;;;;2.65;2.55;;;24.20;59.40;;;;;;5073923;28;20209;-71
2022/08/15 01:30:57;;;;;;;3.08;2.70;;;24.20;59.40;;;;;;5056383;28;20187;-71
2022/08/15 01:33:26;;;;;;;2.88;2.70;;;24.20;59.40;;;;;;5073745;28;20281;-71
2022/08/15 01:35:54;;;;;;;2.50;2.40;;;24.20;59.40;;;;;;5056993;28;20177;-71
2022/08/15 01:38:39;;;;;;;2.78;2.58;;;24.20;60.00;;;;;;5076780;28;20699;-71
2022/08/15 01:41:53;;;;;;;2.78;2.58;;;24.20;59.40;;;;;;5095528;28;20187;-71
2022/08/15 01:44:37;;;;;;;2.78;2.58;;;24.20;59.40;;;;;;5084573;28;20196;-71
2022/08/15 01:47:25;;;;;;;2.60;2.50;;;24.20;59.40;;;;;;5097825;28;20216;-71
2022/08/15 01:50:16;;;;;;;2.80;2.50;;;24.20;59.40;;;;;;5097077;28;20229;-71
2022/08/15 01:53:20;;;;;;;2.55;2.35;;;24.20;59.40;;;;;;5097882;28;20205;-71
2022/08/15 01:56:08;;;;;;;2.10;2.00;;;24.20;59.50;;;;;;5080984;28;20176;-71
2022/08/15 01:58:42;;;;;;;2.58;2.38;;;24.20;59.50;;;;;;5097398;28;20210;-71
2022/08/15 02:01:19;;;;;;;2.42;2.22;;;24.20;60.20;;;;;;5113901;28;20184;-70
2022/08/15 02:03:48;;;;;;;2.45;2.20;;;24.20;59.40;;;;;;5114524;28;20176;-70
2022/08/15 02:06:34;;;;;;;2.53;2.33;;;24.20;59.50;;;;;;5114596;28;20177;-70
2022/08/15 02:09:02;;;;;;;2.47;2.28;;;24.20;59.50;;;;;;5113597;28;20212;-71
2022/08/15 02:11:29;;;;;;;2.70;2.50;;;24.20;59.50;;;;;;5080364;28;20279;-71
2022/08/15 02:13:57;;;;;;;2.88;2.67;;;24.20;59.60;;;;;;5114020;28;20709;-71
2022/08/15 02:16:30;;;;;;;2.75;2.55;;;24.20;59.60;;;;;;5113837;28;20278;-71
2022/08/15 02:18:59;;;;;;;2.60;2.40;;;24.20;59.50;;;;;;5104276;28;20243;-71
2022/08/15 02:21:27;;;;;;;2.35;2.25;;;24.20;59.60;;;;;;5097268;28;20214;-71
2022/08/15 02:23:54;;;;;;;2.50;2.30;;;24.20;59.50;;;;;;5131002;27;20271;-70
2022/08/15 02:26:20;;;;;;;2.42;2.33;;;24.20;59.60;;;;;;5105173;28;20216;-71
2022/08/15 02:28:46;;;;;;;2.25;2.05;;;24.20;59.70;;;;;;5106866;28;20239;-70
2022/08/15 02:31:20;;;;;;;2.55;2.42;;;24.20;59.70;;;;;;5096906;28;20270;-71
2022/08/15 02:33:56;;;;;;;2.55;2.35;;;24.10;59.50;;;;;;5113712;28;20184;-71
2022/08/15 02:36:23;;;;;;;2.28;2.17;;;24.20;59.60;;;;;;5096899;28;20179;-71
2022/08/15 02:38:50;;;;;;;2.40;2.25;;;24.20;59.60;;;;;;5113088;28;20275;-71
2022/08/15 02:41:25;;;;;;;2.58;2.45;;;24.20;59.70;;;;;;5113549;28;20180;-71
2022/08/15 02:43:51;;;;;;;2.38;2.28;;;24.20;59.70;;;;;;5096541;28;20261;-71
2022/08/15 02:46:19;;;;;;;2.60;2.22;;;24.10;59.60;;;;;;5113387;28;20191;-71
2022/08/15 02:48:53;;;;;;;2.75;2.55;;;24.20;59.70;;;;;;5095965;28;20199;-70
2022/08/15 02:51:21;;;;;;;2.50;2.30;;;24.10;59.70;;;;;;5113598;28;20184;-71
2022/08/15 02:53:52;;;;;;;2.17;2.08;;;24.10;59.70;;;;;;5079706;28;20263;-71
2022/08/15 02:56:22;;;;;;;2.53;2.33;;;24.20;59.70;;;;;;5096343;28;20548;-71
2022/08/15 02:58:49;;;;;;;2.60;2.40;;;24.10;59.70;;;;;;5096134;28;20239;-71
2022/08/15 03:01:17;;;;;;;2.50;2.30;;;24.20;59.80;;;;;;5092535;28;20192;-70
2022/08/15 03:03:51;;;;;;;2.78;2.58;;;24.10;59.70;;;;;;5076078;28;20647;-71
2022/08/15 03:06:26;;;;;;;2.70;2.53;;;24.20;59.80;;;;;;5059220;28;20177;-71
2022/08/15 03:08:58;;;;;;;3.15;2.58;;;24.10;59.60;;;;;;5075572;28;20262;-70
2022/08/15 03:11:25;;;;;;;2.55;2.22;;;24.10;59.70;;;;;;5076125;28;20272;-71
2022/08/15 03:13:51;;;;;;;2.35;2.15;;;24.10;59.70;;;;;;5059170;28;20201;-71
2022/08/15 03:16:17;;;;;;;3.13;2.50;;;24.10;59.70;;;;;;5075709;28;20246;-71
2022/08/15 03:18:43;;;;;;;2.20;2.10;;;24.10;59.60;;;;;;5075667;28;20228;-71
2022/08/15 03:21:19;;;;;;;2.50;2.30;;;24.20;59.70;;;;;;5075052;28;20181;-71
2022/08/15 03:23:50;;;;;;;2.45;2.25;;;24.20;59.70;;;;;;5075799;28;20184;-71
2022/08/15 03:26:25;;;;;;;2.72;2.53;;;24.10;59.60;;;;;;5075408;28;20177;-71
2022/08/15 03:28:52;;;;;;;2.70;2.42;;;24.10;59.60;;;;;;5075195;28;20366;-70
2022/08/15 03:31:18;;;;;;;2.17;2.08;;;24.10;59.60;;;;;;5058727;28;20283;-71
2022/08/15 03:33:45;;;;;;;2.38;2.28;;;24.10;59.70;;;;;;5058716;28;20219;-71
2022/08/15 03:36:18;;;;;;;2.40;2.20;;;24.10;59.60;;;;;;5075652;28;20176;-71
2022/08/15 03:38:46;;;;;;;2.17;2.08;;;24.10;59.70;;;;;;5095400;28;20218;-71
2022/08/15 03:41:14;;;;;;;2.28;2.10;;;24.20;59.80;;;;;;5094913;28;20183;-70
2022/08/15 03:43:44;;;;;;;2.33;2.22;;;24.10;59.70;;;;;;5078661;28;20181;-70
2022/08/15 03:46:18;;;;;;;2.20;2.10;;;24.10;59.70;;;;;;5078627;28;20212;-71
2022/08/15 03:48:50;;;;;;;2.50;2.30;;;24.10;59.70;;;;;;5078410;28;20210;-71
2022/08/15 03:51:19;;;;;;;2.30;2.10;;;24.10;59.70;;;;;;5078075;28;20188;-71
2022/08/15 03:53:55;;;;;;;2.10;2.00;;;24.10;59.70;;;;;;5095057;28;20275;-70
2022/08/15 03:56:27;;;;;;;2.08;1.98;;;24.10;59.60;;;;;;5095405;28;20313;-71
2022/08/15 03:58:57;;;;;;;2.33;2.13;;;24.10;59.70;;;;;;5111703;28;20212;-71
2022/08/15 04:01:30;;;;;;;2.13;2.03;;;24.10;59.70;;;;;;5094721;28;20265;-71
2022/08/15 04:03:57;;;;;;;2.45;2.25;;;24.10;59.70;;;;;;5095015;28;20180;-70
2022/08/15 04:06:29;;;;;;;2.20;2.10;;;24.10;59.70;;;;;;5094578;28;20263;-71
2022/08/15 04:08:58;;;;;;;2.30;2.20;;;24.10;59.70;;;;;;5091403;28;20744;-71
2022/08/15 04:11:30;;;;;;;2.53;2.30;;;24.10;59.80;;;;;;5057914;28;20177;-71
2022/08/15 04:13:56;;;;;;;2.28;2.05;;;24.10;59.80;;;;;;5058207;28;20183;-71
2022/08/15 04:16:23;;;;;;;2.70;2.50;;;24.10;59.80;;;;;;5074651;28;20212;-71
2022/08/15 04:18:50;;;;;;;2.38;2.28;;;24.10;59.80;;;;;;5074325;28;20216;-71
2022/08/15 04:21:16;;;;;;;2.10;2.00;;;24.10;59.80;;;;;;5073909;28;20177;-71
2022/08/15 04:23:46;;;;;;;2.47;2.28;;;24.10;59.80;;;;;;5074492;28;20199;-71
2022/08/15 04:26:15;;;;;;;2.20;2.10;;;24.10;59.80;;;;;;5074142;28;20193;-70
2022/08/15 04:28:43;;;;;;;2.33;2.13;;;24.10;59.90;;;;;;5074314;28;20197;-71
2022/08/15 04:31:18;;;;;;;2.20;2.10;;;24.10;59.90;;;;;;5057199;28;20203;-71
2022/08/15 04:33:47;;;;;;;2.22;2.08;;;24.10;59.90;;;;;;5074272;28;20184;-70
2022/08/15 04:36:18;;;;;;;2.45;2.25;;;24.10;60.00;;;;;;5057943;28;20180;-71
2022/08/15 04:38:47;;;;;;;2.10;2.00;;;24.10;59.90;;;;;;5073896;28;20209;-71
2022/08/15 04:41:15;;;;;;;2.22;2.03;;;24.10;60.00;;;;;;5056928;28;20188;-71
2022/08/15 04:43:44;;;;;;;2.22;1.90;;;24.10;60.00;;;;;;5064753;28;20184;-71
2022/08/15 04:46:15;;;;;;;2.00;1.90;;;24.10;60.00;;;;;;5095150;28;20176;-71
2022/08/15 04:48:44;;;;;;;2.10;2.00;;;24.10;60.10;;;;;;5111330;28;20211;-71
2022/08/15 04:51:10;;;;;;;2.00;1.90;;;24.10;60.10;;;;;;5076735;28;20187;-71
2022/08/15 04:53:39;;;;;;;1.98;1.88;;;24.10;60.10;;;;;;5094080;28;20288;-70
2022/08/15 04:56:07;;;;;;;2.40;2.17;;;24.10;60.10;;;;;;5094240;28;20635;-71
2022/08/15 04:58:37;;;;;;;2.13;2.03;;;24.10;60.20;;;;;;5094360;28;20216;-71
2022/08/15 05:01:11;;;;;;;2.30;2.10;;;24.10;60.20;;;;;;5077211;28;20183;-71
2022/08/15 05:03:46;;;;;;;2.10;1.88;;;24.10;61.10;;;;;;5078511;28;20184;-71
2022/08/15 05:06:12;;;;;;;2.20;2.00;;;24.10;60.30;;;;;;5111378;28;20189;-71
2022/08/15 05:08:39;;;;;;;1.90;1.80;;;24.10;60.40;;;;;;5093880;28;20216;-71
2022/08/15 05:11:18;;;;;;;2.50;2.30;;;24.10;60.30;;;;;;5079699;28;20261;-71
2022/08/15 05:13:49;;;;;;;2.17;2.03;;;24.10;60.30;;;;;;5098377;28;20730;-70
2022/08/15 05:16:25;;;;;;;1.90;1.80;;;24.10;60.30;;;;;;5098298;28;20180;-71
2022/08/15 05:18:51;;;;;;;2.17;2.08;;;24.10;60.30;;;;;;5115199;28;20223;-71
2022/08/15 05:21:17;;;;;;;2.28;2.13;;;24.10;60.40;;;;;;5114656;28;20616;-71
2022/08/15 05:23:43;;;;;;;2.25;2.15;;;24.10;60.30;;;;;;5115145;28;20261;-71
2022/08/15 05:26:30;;;;;;;2.13;2.03;;;24.10;60.40;;;;;;5100452;28;20184;-71
2022/08/15 05:28:56;;;;;;;2.38;2.17;;;24.10;60.40;;;;;;5081210;28;20283;-71
2022/08/15 05:31:22;;;;;;;2.10;2.00;;;24.10;60.50;;;;;;5097671;28;20212;-71
2022/08/15 05:33:54;;;;;;;2.15;2.00;;;24.10;60.40;;;;;;5098140;28;20249;-71
2022/08/15 05:36:22;;;;;;;1.95;1.85;;;24.10;60.30;;;;;;5097832;28;20206;-71
2022/08/15 05:38:58;;;;;;;2.10;2.00;;;24.10;60.40;;;;;;5097642;28;20208;-71
2022/08/15 05:41:33;;;;;;;2.38;2.17;;;24.10;60.50;;;;;;5080888;28;20175;-71
2022/08/15 05:44:36;;;;;;;2.10;2.00;;;24.10;60.50;;;;;;5080952;28;20184;-71
2022/08/15 05:47:09;;;;;;;2.50;2.30;;;24.10;60.50;;;;;;5097685;28;20187;-71
2022/08/15 05:49:50;;;;;;;2.10;2.00;;;24.10;60.60;;;;;;5114097;28;20184;-70
2022/08/15 05:53:29;;;;;;;2.22;2.05;;;24.10;60.60;;;;;;5114844;28;20187;-70
2022/08/15 05:56:12;;;;;;;2.15;2.00;;;24.10;60.60;;;;;;5052553;28;20581;-70
2022/08/15 05:59:07;;;;;;;2.00;1.90;;;24.10;60.70;;;;;;5035920;28;20214;-71
2022/08/15 06:02:29;;;;;;;2.22;2.13;;;24.10;60.60;;;;;;5086299;28;20714;-71
2022/08/15 06:05:13;;;;;;;2.33;2.22;;;24.10;60.60;;;;;;5114288;28;20183;-71
2022/08/15 06:07:46;;;;;;;2.55;2.35;;;24.10;60.70;;;;;;5097182;28;20287;-70
2022/08/15 06:10:26;;;;;;;1.92;1.83;;;24.10;60.80;;;;;;5113572;28;20276;-71
2022/08/15 06:13:16;;;;;;;2.08;1.98;;;24.10;60.80;;;;;;5096598;28;20187;-71
2022/08/15 06:16:16;;;;;;;2.30;2.10;;;24.10;60.70;;;;;;5097331;28;20660;-71
2022/08/15 06:18:46;;;;;;;1.90;1.80;;;24.00;60.60;;;;;;5096954;28;20725;-71
2022/08/15 06:21:52;;;;;;;2.20;2.00;;;24.10;60.80;;;;;;5096398;28;20587;-71
2022/08/15 06:24:34;;;;;;;2.67;2.20;;;24.10;60.80;;;;;;5079522;28;20670;-71
2022/08/15 06:27:38;;;;;;;2.30;2.10;;;24.00;60.80;;;;;;5096626;28;20180;-71
2022/08/15 06:30:19;;;;;;;2.38;2.20;;;24.10;61.00;;;;;;5092482;28;20188;-71
2022/08/15 06:32:58;;;;;;;2.17;1.83;;;24.10;60.90;;;;;;5113814;28;20188;-71
2022/08/15 06:36:01;;;;;;;1.98;1.88;;;24.10;61.00;;;;;;5096709;28;20646;-71
2022/08/15 06:38:43;;;;;;;2.00;1.90;;;24.10;60.90;;;;;;5096873;28;20212;-71
2022/08/15 06:41:20;;;;;;;1.98;1.88;;;24.00;60.70;;;;;;5079329;28;20655;-71
2022/08/15 06:43:47;;;;;;;2.95;1.80;;;24.10;60.90;;;;;;5076562;28;20593;-71
2022/08/15 06:46:27;;;;;;;2.58;2.33;;;24.10;60.90;;;;;;5076531;28;20173;-71
2022/08/15 06:48:54;;;;;;;2.47;2.35;;;24.10;61.00;;;;;;5059615;28;20216;-71
2022/08/15 06:51:22;;;;;;;2.33;1.90;;;24.10;61.00;;;;;;5093883;28;20205;-70
2022/08/15 06:53:56;;;;;;;2.00;1.90;;;24.00;60.90;;;;;;5076103;28;20180;-71
2022/08/15 06:56:31;;;;;;;2.40;2.20;;;24.10;61.00;;;;;;5078974;28;20184;-71
2022/08/15 06:59:11;;;;;;;2.00;1.90;;;24.00;61.00;;;;;;5076125;28;20223;-71
2022/08/15 07:02:13;;;;;;;2.20;1.88;;;24.10;61.00;;;;;;5075929;28;20241;-71
2022/08/15 07:05:07;;;;;;;2.05;1.95;;;24.10;61.10;;;;;;5075873;28;20184;-71
2022/08/15 07:08:02;;;;;;;2.03;1.92;;;24.10;61.00;;;;;;5092500;28;20208;-71
2022/08/15 07:10:52;;;;;;;2.10;1.98;;;24.10;61.10;;;;;;5092239;28;20185;-71
2022/08/15 07:14:13;;;;;;;2.15;2.05;;;24.10;61.10;;;;;;5061460;28;20183;-71
2022/08/15 07:17:15;;;;;;;1.98;1.70;;;24.10;61.10;;;;;;5075701;28;20191;-71
2022/08/15 07:19:42;;;;;;;1.67;1.58;;;24.10;61.00;;;;;;5058384;28;20231;-71
2022/08/15 07:22:15;;;;;;;2.47;2.28;;;24.00;61.00;;;;;;5059994;28;20215;-71
2022/08/15 07:24:52;;;;;;;1.95;1.85;;;24.00;61.00;;;;;;5075525;28;20181;-70
2022/08/15 07:27:32;;;;;;;2.15;2.05;;;24.00;61.00;;;;;;5059892;28;20231;-71
2022/08/15 07:30:21;;;;;;;2.08;1.98;;;24.00;61.10;;;;;;5093967;28;20651;-71
2022/08/15 07:32:54;;;;;;;1.92;1.70;;;24.10;61.10;;;;;;5079227;28;20188;-71
2022/08/15 07:35:33;;;;;;;2.80;2.20;;;24.10;61.10;;;;;;5094731;28;20203;-71
2022/08/15 07:38:08;;;;;;;1.85;1.75;;;24.00;61.00;;;;;;5095649;28;20200;-71
2022/08/15 07:40:42;;;;;;;2.90;1.80;;;24.10;61.20;;;;;;5094886;28;20182;-71
2022/08/15 07:43:32;;;;;;;2.30;1.80;;;24.10;61.10;;;;;;5095365;28;20237;-71
2022/08/15 07:46:40;;;;;;;2.60;2.00;;;24.00;60.90;;;;;;5095205;28;20207;-71
2022/08/15 07:49:21;;;;;;;2.08;1.98;;;24.10;61.10;;;;;;5078892;28;20207;-71
2022/08/15 07:52:21;;;;;;;2.10;1.77;;;24.00;60.90;;;;;;5078545;28;20183;-70
2022/08/15 07:54:55;;;;;;;1.70;1.60;;;24.00;61.00;;;;;;5094996;28;20185;-71
2022/08/15 07:57:35;;;;;;;1.77;1.67;;;24.10;61.00;;;;;;5079047;28;20577;-71
2022/08/15 08:00:14;;;;;;;2.05;1.95;;;24.10;61.00;;;;;;5111568;28;20222;-71
2022/08/15 08:03:05;;;;;;;1.98;1.88;;;24.10;60.90;;;;;;5078814;28;20184;-71
2022/08/15 08:05:49;;;;;;;1.88;1.77;;;24.10;60.70;;;;;;5078381;28;20232;-71
2022/08/15 08:08:22;;;;;;;2.05;1.95;;;24.20;60.70;;;;;;5094852;28;20776;-70
2022/08/15 08:11:15;;;;;;;2.13;1.80;;;24.20;60.70;;;;;;5111427;28;20180;-71
2022/08/15 08:14:05;;;;;;;1.70;1.60;;;24.20;60.60;;;;;;5095032;28;20184;-71
2022/08/15 08:16:51;;;;;;;2.85;1.98;;;24.30;60.70;;;;;;5094694;28;20191;-71
2022/08/15 08:19:38;;;;;;;2.03;1.92;;;24.30;60.70;;;;;;5094638;28;20231;-71
2022/08/15 08:22:23;;;;;;;1.83;1.73;;;24.30;60.60;;;;;;5111626;28;20677;-70
2022/08/15 08:25:27;;;;;;;2.03;1.85;;;24.30;60.60;;;;;;5094719;28;20209;-71
2022/08/15 08:28:16;;;;;;;1.92;1.83;;;24.30;60.50;;;;;;5111526;28;20733;-71
2022/08/15 08:31:11;;;;;;;2.00;1.77;;;24.30;60.60;;;;;;5077242;28;20651;-70
2022/08/15 08:33:50;;;;;;;2.00;1.90;;;24.30;60.60;;;;;;5112832;28;20219;-71
2022/08/15 08:36:37;;;;;;;1.75;1.65;;;24.30;60.50;;;;;;5094383;28;20205;-71
2022/08/15 08:39:17;;;;;;;1.88;1.77;;;24.30;60.50;;;;;;5112666;28;20697;-70
2022/08/15 08:42:02;;;;;;;1.60;1.50;;;24.30;60.40;;;;;;5110872;28;20233;-71
2022/08/15 08:44:54;;;;;;;1.90;1.80;;;24.30;60.30;;;;;;5112440;28;20248;-71
2022/08/15 08:48:11;;;;;;;1.70;1.60;;;24.40;60.40;;;;;;5094012;28;20216;-71
2022/08/15 08:50:53;;;;;;;1.60;1.50;;;24.40;60.40;;;;;;5093727;28;20222;-71
2022/08/15 08:53:22;;;;;;;1.60;1.50;;;24.40;60.30;;;;;;5094118;28;20191;-70
2022/08/15 08:56:03;;;;;;;1.70;1.60;;;24.40;60.20;;;;;;5112406;28;20183;-71
2022/08/15 08:58:42;;;;;;;1.67;1.58;;;24.40;60.20;;;;;;5094450;28;20223;-70
2022/08/15 09:01:14;;;;;;;1.90;1.80;;;24.40;60.10;;;;;;5076808;28;20180;-71
2022/08/15 09:03:51;;;;;;;1.70;1.60;;;24.40;60.20;;;;;;5112363;28;20179;-71
2022/08/15 09:06:24;;;;;;;1.90;1.70;;;24.40;60.20;;;;;;5077394;28;20639;-71
2022/08/15 09:09:19;;;;;;;1.60;1.50;;;24.40;60.30;;;;;;5094128;28;20306;-71
2022/08/15 09:15:05;;;;;;;2.00;1.80;;;24.40;60.10;;;;;;5107225;28;20204;-71
2022/08/15 09:17:36;;;;;;;1.80;1.70;;;24.40;60.20;;;;;;5110960;28;20204;-70
2022/08/15 09:20:19;;;;;;;1.80;1.70;;;24.40;60.10;;;;;;5111567;28;20227;-71
2022/08/15 09:22:47;;;;;;;2.00;1.80;;;24.40;60.30;;;;;;5093967;28;20607;-71
2022/08/15 09:25:13;;;;;;;1.35;1.30;;;24.40;60.20;;;;;;5112206;28;20176;-71
2022/08/15 09:28:14;;;;;;;1.65;1.55;;;24.40;60.20;;;;;;5111632;28;20222;-71
2022/08/15 09:30:46;;;;;;;1.60;1.50;;;24.40;60.20;;;;;;5093631;28;20632;-71
2022/08/15 09:33:37;;;;;;;1.63;1.58;;;24.40;60.10;;;;;;5091698;28;20183;-70
2022/08/15 09:36:22;;;;;;;1.60;1.50;;;24.40;60.00;;;;;;5093769;28;20184;-71
2022/08/15 09:38:59;;;;;;;1.60;1.50;;;24.40;60.00;;;;;;5085142;28;20220;-71
2022/08/15 09:41:51;;;;;;;1.60;1.50;;;24.40;60.00;;;;;;5076699;28;20267;-71
2022/08/15 09:45:02;;;;;;;1.60;1.50;;;24.40;60.00;;;;;;5093320;28;20184;-71
2022/08/15 09:48:03;;;;;;;1.60;1.42;;;24.40;60.00;;;;;;5093668;28;20207;-71
2022/08/15 09:50:52;;;;;;;1.75;1.65;;;24.40;60.00;;;;;;5093229;28;20183;-71
2022/08/15 09:53:37;;;;;;;1.60;1.50;;;24.40;60.00;;;;;;5073605;28;20178;-71
2022/08/15 09:56:16;;;;;;;1.38;1.27;;;24.40;60.00;;;;;;5091440;28;20192;-71
2022/08/15 09:58:51;;;;;;;1.50;1.40;;;24.40;60.00;;;;;;5075681;28;20213;-71
2022/08/15 10:01:29;;;;;;;1.55;1.45;;;24.40;59.90;;;;;;5076627;28;20283;-71
2022/08/15 10:04:05;;;;;;;1.80;1.70;;;24.50;60.00;;;;;;5076874;28;20184;-70
2022/08/15 10:07:12;;;;;;;1.58;1.48;;;24.40;59.90;;;;;;5094007;28;20191;-71
2022/08/15 10:10:01;;;;;;;1.63;1.52;;;24.50;60.00;;;;;;5073791;28;20240;-71
2022/08/15 10:12:28;;;;;;;1.55;1.45;;;24.40;60.00;;;;;;5113653;28;20305;-71
2022/08/15 10:15:01;;;;;;;1.60;1.50;;;24.40;60.00;;;;;;5080360;28;20263;-71
2022/08/15 10:17:34;;;;;;;1.40;1.30;;;24.40;60.00;;;;;;5097152;28;20204;-71
2022/08/15 10:20:15;;;;;;;1.83;1.73;;;24.40;60.00;;;;;;5111900;28;20212;-71
2022/08/15 10:23:07;;;;;;;1.55;1.45;;;24.50;60.00;;;;;;5097040;28;20188;-71
2022/08/15 10:25:48;;;;;;;1.60;1.50;;;24.40;59.90;;;;;;5115023;28;20187;-71
2022/08/15 10:28:14;;;;;;;1.77;1.67;;;24.50;60.00;;;;;;5113976;28;20200;-72
2022/08/15 10:31:05;;;;;;;1.70;1.60;;;24.40;59.90;;;;;;5095359;28;20191;-72
2022/08/15 10:33:32;;;;;;;1.60;1.50;;;24.50;60.00;;;;;;5113681;28;20204;-72
2022/08/15 10:36:16;;;;;;;1.55;1.45;;;24.50;59.90;;;;;;5114998;28;20222;-72
2022/08/15 10:38:52;;;;;;;1.60;1.50;;;24.50;59.80;;;;;;5113743;28;20291;-72
2022/08/15 10:42:08;;;;;;;1.60;1.50;;;24.40;59.90;;;;;;5113275;28;20223;-71
2022/08/15 10:45:06;;;;;;;1.52;1.42;;;24.50;59.80;;;;;;5079102;28;20191;-70
2022/08/15 10:48:06;;;;;;;1.50;1.40;;;24.40;59.80;;;;;;5114643;28;20630;-72
2022/08/15 10:50:58;;;;;;;1.60;1.50;;;24.50;59.90;;;;;;5079183;28;20203;-71
2022/08/15 10:54:02;;;;;;;1.83;1.58;;;24.50;59.90;;;;;;5085603;28;20246;-71
2022/08/15 10:56:33;;;;;;;2.15;1.55;;;24.50;59.90;;;;;;5077821;28;20224;-71
2022/08/15 10:59:14;;;;;;;1.45;1.35;;;24.50;59.70;;;;;;5096383;28;20211;-71
2022/08/15 11:01:46;;;;;;;1.60;1.50;;;24.50;59.70;;;;;;5114226;28;20294;-71
2022/08/15 11:04:35;;;;;;;1.50;1.40;;;24.50;59.60;;;;;;5096401;28;20194;-71
2022/08/15 11:07:17;;;;;;;1.40;1.30;;;24.50;59.90;;;;;;5096328;28;20176;-70
2022/08/15 11:09:54;;;;;;;1.70;1.60;;;24.50;59.90;;;;;;5113563;28;20238;-71
2022/08/15 11:12:23;;;;;;;1.55;1.35;;;24.50;59.90;;;;;;5114473;28;20179;-70
2022/08/15 11:15:04;;;;;;;1.30;1.20;;;24.50;59.80;;;;;;5095849;28;20184;-73
2022/08/15 11:17:34;;;;;;;1.10;1.10;;;24.50;59.70;;;;;;5116670;27;20290;-72
2022/08/15 11:20:15;;;;;;;1.58;1.48;;;24.50;59.80;;;;;;5103720;28;20219;-72
2022/08/15 11:22:59;;;;;;;1.40;1.30;;;24.50;59.80;;;;;;5112940;28;20278;-71
2022/08/15 11:25:34;;;;;;;1.25;1.23;;;24.50;59.80;;;;;;5095930;28;20208;-71
2022/08/15 11:28:06;;;;;;;1.40;1.30;;;24.50;59.60;;;;;;5111935;28;20208;-71
2022/08/15 11:30:37;;;;;;;1.40;1.27;;;24.50;59.60;;;;;;5073616;28;20217;-71
2022/08/15 11:33:24;;;;;;;1.58;1.48;;;24.50;59.60;;;;;;5075597;28;20185;-71
2022/08/15 11:36:10;;;;;;;1.50;1.40;;;24.50;59.60;;;;;;5058979;28;20185;-72
2022/08/15 11:38:43;;;;;;;1.80;1.70;;;24.50;59.60;;;;;;5093252;28;20243;-71
2022/08/15 11:41:17;;;;;;;1.63;1.52;;;24.50;59.60;;;;;;5074827;28;20247;-72
2022/08/15 11:43:43;;;;;;;1.63;1.52;;;24.50;59.60;;;;;;5093434;28;20181;-72
2022/08/15 11:46:09;;;;;;;1.25;1.23;;;24.50;59.60;;;;;;5058495;28;20177;-71
2022/08/15 11:48:39;;;;;;;1.42;1.33;;;24.50;59.60;;;;;;5058515;28;20285;-72
2022/08/15 11:51:21;;;;;;;1.48;1.38;;;24.50;59.60;;;;;;5057864;28;20188;-72
2022/08/15 11:54:11;;;;;;;1.40;1.30;;;24.50;59.60;;;;;;5093498;28;20189;-71
2022/08/15 11:56:58;;;;;;;1.50;1.40;;;24.50;59.60;;;;;;5093450;28;20206;-71
2022/08/15 11:59:55;;;;;;;1.48;1.38;;;24.50;59.60;;;;;;5074615;28;20216;-71
2022/08/15 12:02:21;;;;;;;1.65;1.55;;;24.60;59.80;;;;;;5093022;28;20195;-72
2022/08/15 12:04:49;;;;;;;1.50;1.40;;;24.50;59.60;;;;;;5074871;28;20640;-72
2022/08/15 12:07:30;;;;;;;1.80;1.70;;;24.60;59.60;;;;;;5074750;28;20255;-71
2022/08/15 12:09:57;;;;;;;1.50;1.40;;;24.60;59.60;;;;;;5074067;28;20191;-71
2022/08/15 12:12:37;;;;;;;1.85;1.67;;;24.50;59.40;;;;;;5074608;28;20196;-72
2022/08/15 12:15:36;;;;;;;1.80;1.70;;;24.60;59.50;;;;;;5074877;28;20193;-71
2022/08/15 12:18:32;;;;;;;1.60;1.50;;;24.60;59.50;;;;;;5074508;28;20213;-71
2022/08/15 12:21:03;;;;;;;1.40;1.30;;;24.50;59.50;;;;;;5091582;28;20643;-71
2022/08/15 12:23:33;;;;;;;1.58;1.48;;;24.50;59.40;;;;;;5092665;28;20626;-70
2022/08/15 12:26:11;;;;;;;1.50;1.40;;;24.50;59.40;;;;;;5074688;28;20275;-71
2022/08/15 12:28:40;;;;;;;1.40;1.30;;;24.50;59.40;;;;;;5074683;28;20360;-72
2022/08/15 12:31:34;;;;;;;1.77;1.50;;;24.50;59.30;;;;;;5101915;28;20172;-71
2022/08/15 12:34:09;;;;;;;1.85;1.75;;;24.60;59.50;;;;;;5106844;28;20192;-71
2022/08/15 12:36:37;;;;;;;3.17;1.50;;;24.60;59.50;;;;;;5081305;28;20181;-71
2022/08/15 12:39:03;;;;;;;1.50;1.40;;;24.60;59.60;;;;;;5092293;28;20213;-70
2022/08/15 12:41:30;;;;;;;1.70;1.60;;;24.60;59.50;;;;;;5056821;28;20193;-70
2022/08/15 12:43:57;;;;;;;1.90;1.80;;;24.60;59.60;;;;;;5074390;28;20177;-71
2022/08/15 12:46:23;;;;;;;1.63;1.52;;;24.60;59.60;;;;;;5074136;28;20189;-71
2022/08/15 12:48:50;;;;;;;1.60;1.50;;;24.60;59.60;;;;;;5082319;28;20210;-71
2022/08/15 12:51:17;;;;;;;1.50;1.40;;;24.60;59.60;;;;;;5111894;28;20180;-71
2022/08/15 12:53:44;;;;;;;1.88;1.77;;;24.60;59.70;;;;;;5112469;28;20188;-71
2022/08/15 12:56:10;;;;;;;1.60;1.50;;;24.60;59.60;;;;;;5111108;28;20191;-71
2022/08/15 12:58:37;;;;;;;1.73;1.63;;;24.60;59.60;;;;;;5094217;28;20257;-71
2022/08/15 13:01:10;;;;;;;2.10;1.70;;;24.60;59.60;;;;;;5076897;28;20184;-71
2022/08/15 13:03:42;;;;;;;1.60;1.50;;;24.60;59.70;;;;;;5112413;28;20184;-70
2022/08/15 13:06:36;;;;;;;1.77;1.67;;;24.60;59.70;;;;;;5093999;28;20187;-71
2022/08/15 13:09:06;;;;;;;1.80;1.70;;;24.60;59.60;;;;;;5092097;28;20239;-70
2022/08/15 13:11:33;;;;;;;1.48;1.38;;;24.60;59.60;;;;;;5104728;28;20184;-71
2022/08/15 13:14:00;;;;;;;1.67;1.58;;;24.60;59.70;;;;;;5102033;28;20183;-70
2022/08/15 13:16:26;;;;;;;1.65;1.55;;;24.60;59.70;;;;;;5110973;28;20180;-71
2022/08/15 13:18:51;;;;;;;1.75;1.65;;;24.60;60.50;;;;;;5093796;28;20274;-70
2022/08/15 13:24:01;;;;;;;1.48;1.38;;;24.60;59.80;;;;;;5110647;28;20180;-71
2022/08/15 13:26:28;;;;;;;1.50;1.40;;;24.60;59.70;;;;;;5110550;28;20206;-71
2022/08/15 13:28:59;;;;;;;1.90;1.80;;;24.60;59.70;;;;;;5095769;28;20201;-71
2022/08/15 13:31:25;;;;;;;1.75;1.65;;;24.60;59.70;;;;;;5073181;28;20662;-71
2022/08/15 13:33:51;;;;;;;1.63;1.52;;;24.60;59.70;;;;;;5076234;28;20347;-71
2022/08/15 13:36:22;;;;;;;3.08;1.60;;;24.60;59.70;;;;;;5077715;28;20280;-71
2022/08/15 13:38:50;;;;;;;1.70;1.60;;;24.60;60.40;;;;;;5095593;28;20212;-71
2022/08/15 13:41:18;;;;;;;1.67;1.58;;;24.60;59.70;;;;;;5095231;28;20238;-71
2022/08/15 13:43:48;;;;;;;1.67;1.58;;;24.60;59.70;;;;;;5077722;28;20177;-71
2022/08/15 13:46:19;;;;;;;1.80;1.48;;;24.60;59.70;;;;;;5095741;28;20180;-71